Time;durP1;ratioP1;P1;durP2;ratioP2;P2;SDS_P1;SDS_P2;PMS_P1;PMS_P2;Temp;Humidity;BMP_temperature;BMP_pressure;BME280_temperature;BME280_humidity;BME280_pressure;Samples;Min_cycle;Max_cycle;Signal;HPM_P1;HPM_P2
2022/09/04 00:00:14;;;;;;;6.25;3.90;;;;;;;;;;5052780;28;20129;-76
2022/09/04 00:03:12;;;;;;;7.18;4.38;;;;;;;;;;5052930;28;20025;-77
2022/09/04 00:05:48;;;;;;;6.90;4.00;;;;;;;;;;5051582;28;20044;-77
2022/09/04 00:08:40;;;;;;;7.13;4.40;;;;;;;;;;5052787;28;20025;-77
2022/09/04 00:11:30;;;;;;;8.70;3.83;;;;;;;;;;5052508;28;20063;-76
2022/09/04 00:13:59;;;;;;;7.72;3.80;;;;;;;;;;5052971;28;20025;-77
2022/09/04 00:16:41;;;;;;;7.18;4.05;;;;;;;;;;5052590;28;20565;-76
2022/09/04 00:19:36;;;;;;;5.70;4.00;;;;;;;;;;5052841;28;20036;-77
2022/09/04 00:22:18;;;;;;;6.20;4.13;;;;;;;;;;5052807;28;20025;-77
2022/09/04 00:24:52;;;;;;;5.90;4.05;;;;;;;;;;5050979;28;20048;-77
2022/09/04 00:27:24;;;;;;;6.45;3.90;;;;;;;;;;5052479;28;20492;-77
2022/09/04 00:30:10;;;;;;;6.10;4.10;;;;;;;;;;5052587;28;20036;-75
2022/09/04 00:33:07;;;;;;;6.13;4.13;;;;;;;;;;5051064;28;20070;-76
2022/09/04 00:35:39;;;;;;;7.70;3.60;;;;;;;;;;5051925;28;20064;-77
2022/09/04 00:38:32;;;;;;;5.53;3.85;;;;;;;;;;5052443;28;20033;-77
2022/09/04 00:41:29;;;;;;;10.60;4.07;;;;;;;;;;5052312;28;20134;-76
2022/09/04 00:44:04;;;;;;;6.43;4.00;;;;;;;;;;5050819;28;20029;-76
2022/09/04 00:46:48;;;;;;;5.53;4.00;;;;;;;;;;5052143;28;20021;-76
2022/09/04 00:49:36;;;;;;;5.88;3.80;;;;;;;;;;5050971;28;20055;-76
2022/09/04 00:52:39;;;;;;;7.00;3.88;;;;;;;;;;5052024;28;20040;-77
2022/09/04 00:55:53;;;;;;;5.82;3.78;;;;;;;;;;5051527;28;20056;-76
2022/09/04 00:58:34;;;;;;;5.15;3.88;;;;;;;;;;5052307;28;20074;-76
2022/09/04 01:01:00;;;;;;;6.10;3.80;;;;;;;;;;5051723;28;20171;-76
2022/09/04 01:03:50;;;;;;;5.75;4.03;;;;;;;;;;5051876;28;20537;-76
2022/09/04 01:06:24;;;;;;;6.00;4.00;;;;;;;;;;5051624;28;20611;-76
2022/09/04 01:09:29;;;;;;;6.78;3.92;;;;;;;;;;5052174;28;20032;-76
2022/09/04 01:12:24;;;;;;;10.95;3.70;;;;;;;;;;5050160;28;20390;-75
2022/09/04 01:15:14;;;;;;;6.75;4.03;;;;;;;;;;5050275;28;20024;-76
2022/09/04 01:17:50;;;;;;;7.75;4.13;;;;;;;;;;5050203;28;20380;-76
2022/09/04 01:20:45;;;;;;;7.82;3.97;;;;;;;;;;5051520;28;20052;-77
2022/09/04 01:23:25;;;;;;;7.85;3.88;;;;;;;;;;5050123;28;20497;-76
2022/09/04 01:26:01;;;;;;;8.30;4.30;;;;;;;;;;5051340;28;20071;-76
2022/09/04 01:28:35;;;;;;;6.18;3.83;;;;;;;;;;5051617;28;20056;-76
2022/09/04 01:31:11;;;;;;;8.50;3.85;;;;;;;;;;5051357;28;20033;-76
2022/09/04 01:33:53;;;;;;;8.43;3.75;;;;;;;;;;5050148;28;20034;-76
2022/09/04 01:36:34;;;;;;;5.55;3.63;;;;;;;;;;5049576;28;20044;-76
2022/09/04 01:39:00;;;;;;;9.77;4.70;;;;;;;;;;5051514;28;20037;-76
2022/09/04 01:41:49;;;;;;;7.25;3.83;;;;;;;;;;5049931;28;20032;-76
2022/09/04 01:44:14;;;;;;;6.18;4.20;;;;;;;;;;5051209;28;20494;-75
2022/09/04 01:46:59;;;;;;;7.68;4.10;;;;;;;;;;5050881;28;20047;-76
2022/09/04 01:49:33;;;;;;;8.05;4.13;;;;;;;;;;5049733;28;20462;-75
2022/09/04 01:52:09;;;;;;;;;;;;;;;;;;5051524;28;20048;-75
2022/09/04 01:54:44;;;;;;;7.18;3.63;;;;;;;;;;5050797;28;19913;-76
2022/09/04 01:57:28;;;;;;;6.97;3.88;;;;;;;;;;5049477;28;20099;-76
2022/09/04 02:00:14;;;;;;;5.30;3.72;;;;;;;;;;5050626;28;20021;-75
2022/09/04 02:02:53;;;;;;;5.38;3.67;;;;;;;;;;5050705;28;20100;-75
2022/09/04 02:05:27;;;;;;;8.20;4.00;;;;;;;;;;5050633;28;20211;-76
2022/09/04 02:08:11;;;;;;;6.07;3.75;;;;;;;;;;5049234;28;20025;-76
2022/09/04 02:11:00;;;;;;;7.38;3.70;;;;;;;;;;5049185;28;20032;-76
2022/09/04 02:14:07;;;;;;;7.22;3.60;;;;;;;;;;5049265;28;20037;-77
2022/09/04 02:17:07;;;;;;;7.13;3.70;;;;;;;;;;5049968;28;20041;-76
2022/09/04 02:19:54;;;;;;;8.95;3.50;;;;;;;;;;5053580;28;20025;-76
2022/09/04 02:22:35;;;;;;;6.03;3.65;;;;;;;;;;5054283;28;20029;-75
2022/09/04 02:25:09;;;;;;;7.60;3.97;;;;;;;;;;5052541;28;20032;-76
2022/09/04 02:28:05;;;;;;;6.53;3.95;;;;;;;;;;5052658;28;20043;-75
2022/09/04 02:30:59;;;;;;;6.82;3.78;;;;;;;;;;5053929;28;20032;-74
2022/09/04 02:33:34;;;;;;;9.02;4.20;;;;;;;;;;5053164;28;20060;-75
2022/09/04 02:36:33;;;;;;;9.68;4.13;;;;;;;;;;5054183;28;20471;-76
2022/09/04 02:39:15;;;;;;;7.75;4.07;;;;;;;;;;5053028;28;20119;-75
2022/09/04 02:42:22;;;;;;;6.20;4.00;;;;;;;;;;5052419;28;20024;-74
2022/09/04 02:45:04;;;;;;;5.88;4.05;;;;;;;;;;5052674;28;20106;-75
2022/09/04 02:48:17;;;;;;;6.93;3.90;;;;;;;;;;5053500;28;20103;-75
2022/09/04 02:50:58;;;;;;;6.38;3.90;;;;;;;;;;5052018;28;20037;-75
2022/09/04 02:53:45;;;;;;;5.05;3.63;;;;;;;;;;5052175;28;20016;-75
2022/09/04 02:56:24;;;;;;;6.70;3.92;;;;;;;;;;5053544;28;20036;-75
2022/09/04 02:59:26;;;;;;;6.22;3.97;;;;;;;;;;5053341;28;20025;-75
2022/09/04 03:01:58;;;;;;;7.20;3.95;;;;;;;;;;5053263;28;20013;-75
2022/09/04 03:04:40;;;;;;;5.85;3.63;;;;;;;;;;5053566;28;20017;-75
2022/09/04 03:07:12;;;;;;;7.97;3.88;;;;;;;;;;5053184;28;20478;-76
2022/09/04 03:09:47;;;;;;;8.48;3.67;;;;;;;;;;5053365;28;20039;-75
2022/09/04 03:12:29;;;;;;;6.45;3.88;;;;;;;;;;5053437;28;20044;-76
2022/09/04 03:15:04;;;;;;;9.48;4.15;;;;;;;;;;5053564;28;20116;-76
2022/09/04 03:17:39;;;;;;;5.38;3.65;;;;;;;;;;5051128;28;20422;-75
2022/09/04 03:20:20;;;;;;;7.22;3.72;;;;;;;;;;5051790;28;20040;-76
2022/09/04 03:22:56;;;;;;;5.63;3.55;;;;;;;;;;5053244;28;20028;-75
2022/09/04 03:25:56;;;;;;;6.30;3.80;;;;;;;;;;5053183;28;20029;-75
2022/09/04 03:28:34;;;;;;;8.07;3.92;;;;;;;;;;5053402;28;20021;-75
2022/09/04 03:31:17;;;;;;;8.30;3.85;;;;;;;;;;5053189;28;20111;-76
2022/09/04 03:33:51;;;;;;;7.25;3.70;;;;;;;;;;5053187;28;20020;-75
2022/09/04 03:36:30;;;;;;;5.53;3.75;;;;;;;;;;5053726;28;20381;-75
2022/09/04 03:39:06;;;;;;;6.35;3.67;;;;;;;;;;5053063;28;20021;-76
2022/09/04 03:42:08;;;;;;;6.85;3.90;;;;;;;;;;5052847;28;20021;-76
2022/09/04 03:44:57;;;;;;;17.63;4.13;;;;;;;;;;5051581;28;20025;-76
2022/09/04 03:48:02;;;;;;;9.23;3.63;;;;;;;;;;5052982;28;20021;-75
2022/09/04 03:50:56;;;;;;;5.90;3.50;;;;;;;;;;5041390;28;20032;-76
2022/09/04 03:53:30;;;;;;;4.70;3.60;;;;;;;;;;5053301;28;20024;-75
2022/09/04 03:56:17;;;;;;;6.75;3.60;;;;;;;;;;5052773;28;20029;-75
2022/09/04 03:58:53;;;;;;;6.43;3.45;;;;;;;;;;5053000;28;20079;-76
2022/09/04 04:01:25;;;;;;;7.60;3.80;;;;;;;;;;5053054;28;20024;-75
2022/09/04 04:04:21;;;;;;;6.95;3.80;;;;;;;;;;5052585;28;20434;-75
2022/09/04 04:06:52;;;;;;;6.05;3.75;;;;;;;;;;5052537;28;20033;-75
2022/09/04 04:09:43;;;;;;;5.95;3.47;;;;;;;;;;5052828;28;20036;-75
2022/09/04 04:12:26;;;;;;;5.07;3.22;;;;;;;;;;5051435;28;20120;-75
2022/09/04 04:15:02;;;;;;;6.63;3.88;;;;;;;;;;5051420;28;20032;-73
2022/09/04 04:18:01;;;;;;;7.03;3.60;;;;;;;;;;5052634;28;20021;-75
2022/09/04 04:20:51;;;;;;;6.10;3.90;;;;;;;;;;5052877;28;20031;-75
2022/09/04 04:23:46;;;;;;;10.07;3.47;;;;;;;;;;5052515;28;20028;-74
2022/09/04 04:26:36;;;;;;;6.90;3.90;;;;;;;;;;5052452;28;20385;-75
2022/09/04 04:29:17;;;;;;;5.22;3.38;;;;;;;;;;5053985;28;20025;-75
2022/09/04 04:32:19;;;;;;;5.80;3.45;;;;;;;;;;5054868;28;20021;-75
2022/09/04 04:35:03;;;;;;;5.78;3.65;;;;;;;;;;5056369;28;20032;-75
2022/09/04 04:37:54;;;;;;;6.15;3.40;;;;;;;;;;5055950;28;20036;-75
2022/09/04 04:40:40;;;;;;;10.07;4.15;;;;;;;;;;5054870;28;20560;-75
2022/09/04 04:43:37;;;;;;;8.38;4.03;;;;;;;;;;5054625;28;20120;-74
2022/09/04 04:46:41;;;;;;;4.80;3.47;;;;;;;;;;5054518;28;20025;-75
2022/09/04 04:49:27;;;;;;;4.55;3.60;;;;;;;;;;5046656;28;20128;-76
2022/09/04 04:52:15;;;;;;;6.38;3.90;;;;;;;;;;5055984;28;20025;-75
2022/09/04 04:54:56;;;;;;;8.95;3.83;;;;;;;;;;5055948;28;20053;-76
2022/09/04 04:58:13;;;;;;;8.10;3.80;;;;;;;;;;5055556;28;20613;-75
2022/09/04 05:01:05;;;;;;;7.10;3.70;;;;;;;;;;5054084;28;20119;-76
2022/09/04 05:04:01;;;;;;;5.75;3.63;;;;;;;;;;5055696;28;20021;-76
2022/09/04 05:06:48;;;;;;;7.07;3.92;;;;;;;;;;5053900;28;20466;-76
2022/09/04 05:09:30;;;;;;;5.93;3.83;;;;;;;;;;5056207;28;20455;-76
2022/09/04 05:12:15;;;;;;;5.00;3.38;;;;;;;;;;5055374;28;20029;-76
2022/09/04 05:14:50;;;;;;;9.73;3.78;;;;;;;;;;5055208;28;20505;-76
2022/09/04 05:17:39;;;;;;;5.88;3.83;;;;;;;;;;5055399;28;20021;-76
2022/09/04 05:20:13;;;;;;;7.38;3.88;;;;;;;;;;5055065;28;20032;-76
2022/09/04 05:23:09;;;;;;;5.43;3.28;;;;;;;;;;5055406;28;20025;-75
2022/09/04 05:25:57;;;;;;;8.18;3.92;;;;;;;;;;5054238;28;20037;-76
2022/09/04 05:28:39;;;;;;;6.43;3.40;;;;;;;;;;5055287;28;20021;-76
2022/09/04 05:31:23;;;;;;;5.75;3.78;;;;;;;;;;5054935;28;20021;-76
2022/09/04 05:34:03;;;;;;;9.82;3.88;;;;;;;;;;5055694;28;20114;-76
2022/09/04 05:36:43;;;;;;;5.28;3.63;;;;;;;;;;5054662;28;20032;-76
2022/09/04 05:39:16;;;;;;;7.07;3.90;;;;;;;;;;5054416;28;20063;-75
2022/09/04 05:42:32;;;;;;;6.57;3.83;;;;;;;;;;5054807;28;20103;-76
2022/09/04 05:45:23;;;;;;;7.18;3.65;;;;;;;;;;5044581;28;20037;-76
2022/09/04 05:48:20;;;;;;;4.68;3.33;;;;;;;;;;5054609;28;20024;-75
2022/09/04 05:50:56;;;;;;;5.88;3.60;;;;;;;;;;5054596;28;20505;-75
2022/09/04 05:53:42;;;;;;;7.32;3.83;;;;;;;;;;5054891;28;20055;-75
2022/09/04 05:56:40;;;;;;;5.13;3.38;;;;;;;;;;5054445;28;20346;-76
2022/09/04 05:59:39;;;;;;;6.63;3.65;;;;;;;;;;5054789;28;20033;-76
2022/09/04 06:02:33;;;;;;;5.53;3.70;;;;;;;;;;5053173;28;20025;-76
2022/09/04 06:05:10;;;;;;;7.70;3.60;;;;;;;;;;5054102;28;20032;-75
2022/09/04 06:07:49;;;;;;;5.53;3.75;;;;;;;;;;5054224;28;20513;-76
2022/09/04 06:10:59;;;;;;;7.38;3.70;;;;;;;;;;5052976;28;20472;-76
2022/09/04 06:13:54;;;;;;;8.68;4.00;;;;;;;;;;5054465;28;20024;-76
2022/09/04 06:16:35;;;;;;;6.20;3.60;;;;;;;;;;5052886;28;20111;-76
2022/09/04 06:19:15;;;;;;;5.78;3.55;;;;;;;;;;5053006;28;20036;-76
2022/09/04 06:22:02;;;;;;;4.70;3.40;;;;;;;;;;5052834;28;20021;-76
2022/09/04 06:24:38;;;;;;;5.60;3.38;;;;;;;;;;5054217;28;20043;-76
2022/09/04 06:27:44;;;;;;;7.88;3.85;;;;;;;;;;5054017;28;20075;-76
2022/09/04 06:30:15;;;;;;;7.78;3.53;;;;;;;;;;5052934;28;20028;-76
2022/09/04 06:33:02;;;;;;;6.25;3.42;;;;;;;;;;5052702;28;20107;-76
2022/09/04 06:36:15;;;;;;;5.22;3.28;;;;;;;;;;5054128;28;20025;-76
2022/09/04 06:39:20;;;;;;;5.90;3.47;;;;;;;;;;5054380;28;20037;-77
2022/09/04 06:42:27;;;;;;;4.53;3.05;;;;;;;;;;5056434;28;20029;-78
2022/09/04 06:45:21;;;;;;;9.23;3.42;;;;;;;;;;5051862;28;20109;-78
2022/09/04 06:47:59;;;;;;;5.18;3.55;;;;;;;;;;5055542;28;20025;-78
2022/09/04 06:50:30;;;;;;;6.05;3.50;;;;;;;;;;5055556;28;20021;-79
2022/09/04 06:53:06;;;;;;;8.73;3.33;;;;;;;;;;5052492;28;20036;-76
2022/09/04 06:55:55;;;;;;;5.07;3.40;;;;;;;;;;5053332;28;20028;-76
2022/09/04 06:58:48;;;;;;;6.03;3.67;;;;;;;;;;5053557;28;20025;-76
2022/09/04 07:01:39;;;;;;;4.93;3.60;;;;;;;;;;5054366;28;20028;-76
2022/09/04 07:04:42;;;;;;;6.20;3.83;;;;;;;;;;5053948;28;20028;-76
2022/09/04 07:07:45;;;;;;;7.45;4.00;;;;;;;;;;5053329;28;20082;-76
2022/09/04 07:10:25;;;;;;;6.57;3.47;;;;;;;;;;5053288;28;20032;-75
2022/09/04 07:13:07;;;;;;;6.57;3.83;;;;;;;;;;5053411;28;20032;-75
2022/09/04 07:15:58;;;;;;;5.38;3.53;;;;;;;;;;5051749;28;20031;-75
2022/09/04 07:18:42;;;;;;;6.05;3.50;;;;;;;;;;5052950;28;20502;-75
2022/09/04 07:21:38;;;;;;;5.13;3.38;;;;;;;;;;5051737;28;20032;-75
2022/09/04 07:24:45;;;;;;;4.70;3.50;;;;;;;;;;5053254;28;20059;-73
2022/09/04 07:27:43;;;;;;;7.13;3.47;;;;;;;;;;5053407;28;20458;-76
2022/09/04 07:30:12;;;;;;;7.32;3.50;;;;;;;;;;5053333;28;20032;-75
2022/09/04 07:32:48;;;;;;;5.75;3.67;;;;;;;;;;5052927;28;20033;-76
2022/09/04 07:35:27;;;;;;;6.50;3.72;;;;;;;;;;5051683;28;20025;-76
2022/09/04 07:37:59;;;;;;;5.32;3.67;;;;;;;;;;5053418;28;20043;-76
2022/09/04 07:40:33;;;;;;;4.68;3.63;;;;;;;;;;5052721;28;20031;-76
2022/09/04 07:43:08;;;;;;;5.03;3.70;;;;;;;;;;5052748;28;20494;-75
2022/09/04 07:45:46;;;;;;;11.13;3.67;;;;;;;;;;5053336;28;20063;-76
2022/09/04 07:48:22;;;;;;;7.00;3.55;;;;;;;;;;5053384;28;20475;-76
2022/09/04 07:51:12;;;;;;;5.05;3.30;;;;;;;;;;5053040;28;20425;-76
2022/09/04 07:53:37;;;;;;;6.18;3.58;;;;;;;;;;5053216;28;20021;-75
2022/09/04 07:56:19;;;;;;;6.15;3.50;;;;;;;;;;5052760;28;20511;-75
2022/09/04 07:59:34;;;;;;;7.70;3.25;;;;;;;;;;5052811;28;20497;-74
2022/09/04 08:02:18;;;;;;;4.88;3.20;;;;;;;;;;5050612;28;20072;-75
2022/09/04 08:05:02;;;;;;;5.20;3.30;;;;;;;;;;5054610;28;20033;-74
2022/09/04 08:07:37;;;;;;;6.88;3.40;;;;;;;;;;5051256;28;20045;-75
2022/09/04 08:10:17;;;;;;;5.20;3.10;;;;;;;;;;5056805;28;20083;-75
2022/09/04 08:13:11;;;;;;;4.47;3.00;;;;;;;;;;5056739;28;20028;-75
2022/09/04 08:15:51;;;;;;;9.98;3.28;;;;;;;;;;5056174;28;20017;-75
2022/09/04 08:18:49;;;;;;;7.80;3.13;;;;;;;;;;5054873;28;20025;-76
2022/09/04 08:21:29;;;;;;;7.55;3.35;;;;;;;;;;5056405;28;20482;-76
2022/09/04 08:24:13;;;;;;;4.53;3.10;;;;;;;;;;5056723;28;20040;-75
2022/09/04 08:27:08;;;;;;;4.00;2.95;;;;;;;;;;5056269;28;20474;-75
2022/09/04 08:29:52;;;;;;;5.25;3.15;;;;;;;;;;5056225;28;20076;-75
2022/09/04 08:32:51;;;;;;;6.95;3.22;;;;;;;;;;5054930;28;20458;-74
2022/09/04 08:35:33;;;;;;;6.88;3.15;;;;;;;;;;5055775;28;20028;-74
2022/09/04 08:38:36;;;;;;;5.90;2.90;;;;;;;;;;5054573;28;20473;-76
2022/09/04 08:41:27;;;;;;;3.67;2.87;;;;;;;;;;5055312;28;20478;-74
2022/09/04 08:44:08;;;;;;;9.80;3.20;;;;;;;;;;5055839;28;20254;-75
2022/09/04 08:47:11;;;;;;;6.82;2.95;;;;;;;;;;5056014;28;20017;-75
2022/09/04 08:50:09;;;;;;;5.18;3.17;;;;;;;;;;5055435;28;20024;-75
2022/09/04 08:52:51;;;;;;;3.72;3.00;;;;;;;;;;5055778;28;20024;-75
2022/09/04 08:55:54;;;;;;;4.57;3.28;;;;;;;;;;5055616;28;20074;-75
2022/09/04 08:58:49;;;;;;;4.32;2.90;;;;;;;;;;5055236;28;20029;-75
2022/09/04 09:01:22;;;;;;;;;;;;;;;;;;5055672;28;20025;-74
2022/09/04 09:04:29;;;;;;;5.05;3.13;;;;;;;;;;5055654;28;19908;-76
2022/09/04 09:07:04;;;;;;;6.00;3.00;;;;;;;;;;5053920;28;20033;-74
2022/09/04 09:10:02;;;;;;;4.47;2.90;;;;;;;;;;5055164;28;20032;-75
2022/09/04 09:13:05;;;;;;;4.25;2.97;;;;;;;;;;5055308;28;20036;-76
2022/09/04 09:15:47;;;;;;;6.47;2.88;;;;;;;;;;5052998;28;20021;-76
2022/09/04 09:18:36;;;;;;;8.57;2.70;;;;;;;;;;5054979;28;20075;-75
2022/09/04 09:21:09;;;;;;;3.90;3.08;;;;;;;;;;5053606;28;20024;-74
2022/09/04 09:23:44;;;;;;;4.90;3.33;;;;;;;;;;5054804;28;20035;-75
2022/09/04 09:26:28;;;;;;;4.18;2.75;;;;;;;;;;5055040;28;20029;-74
2022/09/04 09:29:23;;;;;;;5.07;3.15;;;;;;;;;;5053537;28;20029;-74
2022/09/04 09:32:06;;;;;;;3.88;2.70;;;;;;;;;;5054819;28;20389;-75
2022/09/04 09:35:07;;;;;;;6.00;2.63;;;;;;;;;;5053518;28;20031;-75
2022/09/04 09:37:45;;;;;;;5.65;2.45;;;;;;;;;;5053408;28;20365;-75
2022/09/04 09:40:25;;;;;;;5.88;2.78;;;;;;;;;;5054936;28;20017;-74
2022/09/04 09:42:51;;;;;;;7.22;2.90;;;;;;;;;;5054575;28;20037;-75
2022/09/04 09:45:44;;;;;;;3.97;2.63;;;;;;;;;;5054661;28;20029;-75
2022/09/04 09:48:28;;;;;;;4.28;2.63;;;;;;;;;;5054490;28;20023;-74
2022/09/04 09:51:26;;;;;;;4.80;2.50;;;;;;;;;;5054523;28;20036;-75
2022/09/04 09:54:19;;;;;;;3.00;2.35;;;;;;;;;;5054400;28;20029;-74
2022/09/04 09:57:05;;;;;;;3.60;2.85;;;;;;;;;;5054234;28;20036;-76
2022/09/04 09:59:57;;;;;;;5.88;2.40;;;;;;;;;;5054589;28;20478;-76
2022/09/04 10:02:49;;;;;;;4.22;2.38;;;;;;;;;;5054266;28;20032;-75
2022/09/04 10:05:51;;;;;;;4.88;2.70;;;;;;;;;;5053458;28;20574;-74
2022/09/04 10:08:38;;;;;;;3.50;2.50;;;;;;;;;;5054153;28;20052;-75
2022/09/04 10:11:40;;;;;;;3.08;2.28;;;;;;;;;;5054190;28;20017;-74
2022/09/04 10:14:24;;;;;;;4.20;2.25;;;;;;;;;;5053964;28;20059;-74
2022/09/04 10:17:14;;;;;;;4.22;2.47;;;;;;;;;;5053861;28;20478;-75
2022/09/04 10:20:19;;;;;;;3.40;2.38;;;;;;;;;;5052654;28;20029;-74
2022/09/04 10:23:05;;;;;;;3.20;2.35;;;;;;;;;;5053778;28;20482;-75
2022/09/04 10:26:01;;;;;;;3.75;2.45;;;;;;;;;;5053581;28;20112;-75
2022/09/04 10:29:11;;;;;;;3.28;2.50;;;;;;;;;;5053788;28;20024;-74
2022/09/04 10:31:51;;;;;;;4.45;2.50;;;;;;;;;;5053637;28;20028;-75
2022/09/04 10:34:39;;;;;;;4.32;2.50;;;;;;;;;;5052234;28;20024;-75
2022/09/04 10:37:22;;;;;;;3.88;2.50;;;;;;;;;;5053661;28;20024;-75
2022/09/04 10:40:39;;;;;;;4.80;2.78;;;;;;;;;;5053466;28;20025;-76
2022/09/04 10:43:16;;;;;;;3.53;2.40;;;;;;;;;;5053840;28;20410;-75
2022/09/04 10:45:53;;;;;;;4.25;2.10;;;;;;;;;;5053574;28;20036;-75
2022/09/04 10:48:56;;;;;;;4.70;2.50;;;;;;;;;;5053217;28;20032;-75
2022/09/04 10:51:52;;;;;;;4.18;2.20;;;;;;;;;;5041616;28;20037;-75
2022/09/04 10:55:01;;;;;;;4.05;2.28;;;;;;;;;;5053073;28;20020;-74
2022/09/04 10:57:55;;;;;;;3.05;2.20;;;;;;;;;;5051866;28;20489;-75
2022/09/04 11:00:39;;;;;;;4.63;2.28;;;;;;;;;;5053294;28;20107;-74
2022/09/04 11:03:44;;;;;;;7.00;2.70;;;;;;;;;;5053457;28;20101;-75
2022/09/04 11:06:24;;;;;;;;;;;;;;;;;;5052023;28;20029;-75
2022/09/04 11:09:14;;;;;;;4.22;2.10;;;;;;;;;;5053014;28;19919;-76
2022/09/04 11:12:28;;;;;;;4.00;2.50;;;;;;;;;;5053110;28;20054;-75
2022/09/04 11:15:13;;;;;;;4.35;2.42;;;;;;;;;;5053395;28;20017;-76
2022/09/04 11:18:05;;;;;;;3.70;2.40;;;;;;;;;;5052863;28;20529;-75
2022/09/04 11:21:06;;;;;;;4.30;2.58;;;;;;;;;;5052804;28;20033;-75
2022/09/04 11:23:54;;;;;;;4.85;2.40;;;;;;;;;;5053041;28;20534;-75
2022/09/04 11:26:46;;;;;;;5.47;2.30;;;;;;;;;;5052704;28;20509;-76
2022/09/04 11:29:32;;;;;;;3.47;2.33;;;;;;;;;;5051522;28;20029;-75
2022/09/04 11:32:22;;;;;;;3.70;2.20;;;;;;;;;;5052806;28;20040;-75
2022/09/04 11:35:20;;;;;;;3.40;2.28;;;;;;;;;;5051436;28;20102;-75
2022/09/04 11:38:04;;;;;;;3.45;2.45;;;;;;;;;;5053739;28;20386;-75
2022/09/04 11:41:02;;;;;;;3.45;2.22;;;;;;;;;;5055586;28;20031;-75
2022/09/04 11:43:53;;;;;;;3.50;2.25;;;;;;;;;;5055560;28;20029;-75
2022/09/04 11:46:49;;;;;;;2.97;2.38;;;;;;;;;;5056972;28;20037;-75
2022/09/04 11:49:42;;;;;;;5.82;2.13;;;;;;;;;;5056282;28;20188;-75
2022/09/04 11:52:46;;;;;;;3.33;2.33;;;;;;;;;;5056954;28;20021;-75
2022/09/04 11:55:41;;;;;;;5.32;2.83;;;;;;;;;;5056035;28;20040;-76
2022/09/04 11:58:27;;;;;;;6.72;2.50;;;;;;;;;;5056800;28;20143;-75
2022/09/04 12:01:09;;;;;;;5.80;2.70;;;;;;;;;;5056410;28;20061;-75
2022/09/04 12:03:53;;;;;;;4.90;2.67;;;;;;;;;;5056785;28;20393;-75
2022/09/04 12:06:58;;;;;;;3.38;2.53;;;;;;;;;;5054923;28;20037;-75
2022/09/04 12:09:29;;;;;;;5.95;2.75;;;;;;;;;;5056204;28;20104;-75
2022/09/04 12:12:21;;;;;;;3.75;2.70;;;;;;;;;;5054996;28;20031;-75
2022/09/04 12:15:05;;;;;;;5.40;2.53;;;;;;;;;;5056544;28;20032;-77
2022/09/04 12:17:46;;;;;;;4.10;2.65;;;;;;;;;;5056075;28;20033;-75
2022/09/04 12:20:29;;;;;;;3.60;2.83;;;;;;;;;;5056116;28;20025;-77
2022/09/04 12:23:21;;;;;;;5.25;2.92;;;;;;;;;;5054690;28;20032;-75
2022/09/04 12:25:56;;;;;;;3.60;2.80;;;;;;;;;;5055976;28;20029;-74
2022/09/04 12:29:09;;;;;;;4.40;3.03;;;;;;;;;;5056033;28;20017;-75
2022/09/04 12:31:51;;;;;;;3.55;2.60;;;;;;;;;;5054483;28;20513;-75
2022/09/04 12:34:47;;;;;;;3.03;2.58;;;;;;;;;;5056069;28;20060;-75
2022/09/04 12:37:49;;;;;;;4.38;2.55;;;;;;;;;;5055865;28;20112;-75
2022/09/04 12:40:40;;;;;;;3.97;2.63;;;;;;;;;;5056078;28;20028;-75
2022/09/04 12:43:19;;;;;;;4.97;2.50;;;;;;;;;;5055718;28;20517;-75
2022/09/04 12:46:18;;;;;;;3.75;2.40;;;;;;;;;;5055818;28;20367;-75
2022/09/04 12:49:24;;;;;;;4.60;2.70;;;;;;;;;;5055276;28;20497;-75
2022/09/04 12:52:05;;;;;;;3.50;2.78;;;;;;;;;;5036767;28;20383;-76
2022/09/04 12:54:33;;;;;;;3.78;2.65;;;;;;;;;;5055638;28;20186;-75
2022/09/04 12:57:16;;;;;;;5.93;2.53;;;;;;;;;;5055237;28;20028;-75
2022/09/04 13:00:04;;;;;;;5.70;2.90;;;;;;;;;;5054152;28;20123;-75
2022/09/04 13:02:59;;;;;;;5.22;3.00;;;;;;;;;;5054113;28;20078;-76
2022/09/04 13:05:47;;;;;;;4.10;2.40;;;;;;;;;;5055385;28;20548;-76
2022/09/04 13:08:45;;;;;;;4.00;2.40;;;;;;;;;;5055547;28;20478;-76
2022/09/04 13:11:22;;;;;;;5.75;2.53;;;;;;;;;;5053970;28;20025;-75
2022/09/04 13:14:31;;;;;;;6.88;2.75;;;;;;;;;;5055482;28;20025;-75
2022/09/04 13:17:25;;;;;;;8.10;2.78;;;;;;;;;;5053761;28;20071;-76
2022/09/04 13:20:23;;;;;;;4.50;2.60;;;;;;;;;;5055154;28;20028;-75
2022/09/04 13:23:00;;;;;;;3.03;2.20;;;;;;;;;;5054690;28;20036;-75
2022/09/04 13:25:48;;;;;;;3.92;2.50;;;;;;;;;;5055216;28;20017;-76
2022/09/04 13:28:27;;;;;;;4.63;2.33;;;;;;;;;;5055123;28;20028;-75
2022/09/04 13:31:18;;;;;;;7.75;2.80;;;;;;;;;;5054918;28;20029;-76
2022/09/04 13:34:12;;;;;;;3.22;2.47;;;;;;;;;;5053621;28;20470;-76
2022/09/04 13:36:49;;;;;;;4.50;2.23;;;;;;;;;;5053498;28;20029;-76
2022/09/04 13:39:47;;;;;;;4.15;2.15;;;;;;;;;;5053574;28;20150;-75
2022/09/04 13:42:33;;;;;;;3.88;2.30;;;;;;;;;;5054824;28;20013;-75
2022/09/04 13:45:22;;;;;;;3.53;2.45;;;;;;;;;;5053296;28;20034;-76
2022/09/04 13:47:55;;;;;;;3.13;2.30;;;;;;;;;;5053310;28;20035;-76
2022/09/04 13:51:03;;;;;;;7.03;2.78;;;;;;;;;;5053269;28;20032;-76
2022/09/04 13:53:46;;;;;;;4.63;2.30;;;;;;;;;;5054959;28;20037;-76
2022/09/04 13:56:21;;;;;;;3.63;2.47;;;;;;;;;;5053071;28;20130;-75
2022/09/04 13:58:50;;;;;;;3.42;2.30;;;;;;;;;;5054307;28;20076;-76
2022/09/04 14:01:24;;;;;;;5.70;2.58;;;;;;;;;;5052700;28;20493;-76
2022/09/04 14:03:58;;;;;;;4.85;2.22;;;;;;;;;;5054251;28;20478;-76
2022/09/04 14:06:26;;;;;;;3.00;2.55;;;;;;;;;;5054176;28;20124;-75
2022/09/04 14:08:54;;;;;;;4.78;2.38;;;;;;;;;;5054074;28;20036;-76
2022/09/04 14:11:19;;;;;;;4.05;2.55;;;;;;;;;;5054008;28;20057;-76
2022/09/04 14:14:40;;;;;;;6.35;2.47;;;;;;;;;;5052811;28;20052;-75
2022/09/04 14:17:07;;;;;;;4.93;2.50;;;;;;;;;;5044504;28;20052;-74
2022/09/04 14:19:55;;;;;;;5.05;2.33;;;;;;;;;;5054336;28;20021;-74
2022/09/04 14:22:37;;;;;;;3.65;2.55;;;;;;;;;;5054130;28;20028;-75
2022/09/04 14:25:21;;;;;;;4.97;2.42;;;;;;;;;;5053823;28;20025;-74
2022/09/04 14:27:58;;;;;;;9.95;6.53;;;;;;;;;;5053719;28;20051;-75
2022/09/04 14:30:24;;;;;;;4.93;2.28;;;;;;;;;;5054026;28;20410;-75
2022/09/04 14:33:19;;;;;;;3.00;2.47;;;;;;;;;;5053625;28;20032;-75
2022/09/04 14:36:04;;;;;;;3.03;2.17;;;;;;;;;;5053015;28;20302;-75
2022/09/04 14:38:55;;;;;;;4.28;2.50;;;;;;;;;;5052246;28;20037;-75
2022/09/04 14:41:46;;;;;;;3.40;2.30;;;;;;;;;;5053506;28;20025;-75
2022/09/04 14:44:31;;;;;;;3.17;2.60;;;;;;;;;;5053441;28;20108;-76
2022/09/04 14:47:24;;;;;;;4.78;2.65;;;;;;;;;;5053303;28;20021;-76
2022/09/04 14:49:51;;;;;;;4.30;2.53;;;;;;;;;;5053303;28;20047;-76
2022/09/04 14:52:21;;;;;;;3.33;2.30;;;;;;;;;;5053298;28;20094;-76
2022/09/04 14:54:52;;;;;;;3.10;2.38;;;;;;;;;;5054785;28;20017;-76
2022/09/04 14:57:30;;;;;;;3.75;2.40;;;;;;;;;;5053834;28;20036;-76
2022/09/04 15:00:13;;;;;;;4.82;2.60;;;;;;;;;;5053301;28;20033;-76
2022/09/04 15:03:01;;;;;;;5.55;2.70;;;;;;;;;;5053323;28;20021;-75
2022/09/04 15:05:46;;;;;;;3.28;2.70;;;;;;;;;;5052949;28;20493;-75
2022/09/04 15:08:25;;;;;;;3.83;2.40;;;;;;;;;;5051816;28;20062;-74
2022/09/04 15:10:53;;;;;;;5.35;2.47;;;;;;;;;;5051746;28;20032;-75
2022/09/04 15:13:37;;;;;;;4.20;2.72;;;;;;;;;;5052640;28;20043;-75
2022/09/04 15:16:18;;;;;;;3.42;2.45;;;;;;;;;;5052817;28;20035;-75
2022/09/04 15:19:17;;;;;;;3.78;2.50;;;;;;;;;;5052826;28;20029;-75
2022/09/04 15:21:57;;;;;;;3.47;2.60;;;;;;;;;;5052917;28;20025;-76
2022/09/04 15:24:28;;;;;;;4.00;2.35;;;;;;;;;;5052950;28;20070;-76
2022/09/04 15:27:25;;;;;;;3.75;2.45;;;;;;;;;;5052760;28;20029;-75
2022/09/04 15:29:50;;;;;;;5.63;2.40;;;;;;;;;;5052505;28;20494;-75
2022/09/04 15:32:25;;;;;;;5.50;2.60;;;;;;;;;;5053114;28;20159;-75
2022/09/04 15:35:19;;;;;;;10.20;2.60;;;;;;;;;;5053100;28;20079;-75
2022/09/04 15:37:48;;;;;;;6.10;2.35;;;;;;;;;;5052667;28;20135;-76
2022/09/04 15:40:25;;;;;;;3.63;2.58;;;;;;;;;;5052769;28;20017;-75
2022/09/04 15:43:08;;;;;;;15.93;2.70;;;;;;;;;;5051489;28;20025;-75
2022/09/04 15:45:52;;;;;;;4.10;2.25;;;;;;;;;;5051371;28;20021;-75
2022/09/04 15:48:28;;;;;;;3.78;2.40;;;;;;;;;;5051292;28;20017;-75
2022/09/04 15:51:17;;;;;;;5.40;2.67;;;;;;;;;;5052605;28;20025;-76
2022/09/04 15:54:14;;;;;;;3.88;2.40;;;;;;;;;;5052941;28;20021;-75
2022/09/04 15:56:51;;;;;;;3.95;2.45;;;;;;;;;;5051461;28;20021;-75
2022/09/04 15:59:28;;;;;;;3.58;2.33;;;;;;;;;;5052782;28;20029;-75
2022/09/04 16:01:53;;;;;;;3.22;2.45;;;;;;;;;;5051259;28;20021;-75
2022/09/04 16:04:33;;;;;;;5.00;3.10;;;;;;;;;;5052686;28;20382;-75
2022/09/04 16:07:31;;;;;;;3.22;2.42;;;;;;;;;;5051112;28;20067;-75
2022/09/04 16:10:24;;;;;;;3.20;2.40;;;;;;;;;;5051124;28;20031;-75
2022/09/04 16:13:04;;;;;;;8.07;2.38;;;;;;;;;;5051215;28;20025;-77
2022/09/04 16:15:42;;;;;;;4.32;2.47;;;;;;;;;;5052775;28;20021;-75
2022/09/04 16:18:13;;;;;;;3.40;2.50;;;;;;;;;;5051166;28;20028;-76
2022/09/04 16:20:47;;;;;;;3.55;2.30;;;;;;;;;;5052850;28;20116;-75
2022/09/04 16:23:15;;;;;;;3.05;2.30;;;;;;;;;;5053484;28;20469;-75
2022/09/04 16:25:46;;;;;;;4.43;2.50;;;;;;;;;;5056092;28;20025;-75
2022/09/04 16:28:33;;;;;;;5.13;2.38;;;;;;;;;;5054781;28;20525;-75
2022/09/04 16:31:00;;;;;;;4.78;2.53;;;;;;;;;;5056466;28;20052;-76
2022/09/04 16:33:43;;;;;;;4.30;2.53;;;;;;;;;;5055834;28;20036;-76
2022/09/04 16:36:16;;;;;;;3.88;2.55;;;;;;;;;;5056054;28;20071;-75